AirNav   Air Wisconsin Up To $57,000 Bonus
 
 923 users online  

1MA4 Wang Heliport
Lowell, Massachusetts, USA

GOING TO LOWELL?


FAA INFORMATION EFFECTIVE 20 JUNE 2019

Location

FAA Identifier: 1MA4
Lat/Long: 42-36-33.3300N / 071-19-18.2170W
42-36.555500N / 071-19.303617W
42.6092583 / -71.3217269
(estimated)
Elevation: 104 ft. / 32 m (estimated)
Variation: 16W (1985)
From city: 2 miles N of LOWELL, MA
Time zone: UTC -4 (UTC -5 during Standard Time)
Zip code: 01851

Heliport Operations

Heliport use: Private use. Permission required prior to landing
Activation date: 07/1985
Control tower: no
ARTCC: BOSTON CENTER
FSS: BRIDGEPORT FLIGHT SERVICE STATION
Attendance: IREG
Wind indicator: yes
Segmented circle: no

Heliport Communications

WX ASOS at BED (8 nm S): 124.6 (781-274-9733)
WX ASOS at LWM (11 nm NE): 126.75 (978-687-8017)
WX AWOS-3PT at ASH (13 nm NW): 125.1 (603-578-0473)
WX ASOS at BVY (18 nm E): PHONE 978-921-5042
WX ASOS at FIT (20 nm W): 135.175 (978-343-9121)

Nearby radio navigation aids

VOR radial/distance  VOR name  Freq  Var
LWMr247/12.7LAWRENCE VOR/DME112.5015W
MHTr187/15.7MANCHESTER VOR/DME114.4015W
BOSr332/21.1BOSTON VOR/DME112.7016W
GDMr097/32.8GARDNER VOR/DME110.6014W
PSMr233/35.7PEASE VOR/DME116.5016W
CONr178/38.3CONCORD VOR/DME112.9015W

 
NDB name  Hdg/Dist  Freq  Var  ID
HAGET264/5.940215WLW .-.. .--
SHAKER HILL341/11.225116WSKR ... -.- .-.
FITCHBURG095/19.636515WFIT ..-. .. -

Heliport Services

Runway Information

Helipad H1

Dimensions: 132 x 132 ft. / 40 x 40 m
Surface: concrete
Traffic pattern: leftleft

Heliport Ownership and Management from official FAA records

Ownership: Privately-owned
Owner: WANG LABORATORIES
ONE INDUSTRIAL AVENUE
LOWELL, MA 01851
Phone 508-967-2162
Manager: J. ALBERT E. THERRIAULT
ONE INDUSTRIAL AVENUE
LOWELL, MA 01851
Phone 508-967-2162

Additional Remarks

FOR CD CTC BOSTON APCH AT 603-594-5554.

Instrument Procedures

There are no published instrument procedures at 1MA4.

Some nearby airports with instrument procedures:

KBED - Laurence G Hanscom Field Airport (8 nm S)
KLWM - Lawrence Municipal Airport (11 nm NE)
6B6 - Minute Man Air Field (12 nm SW)
KASH - Boire Field Airport (13 nm NW)
KBVY - Beverly Regional Airport (18 nm E)
KFIT - Fitchburg Municipal Airport (20 nm W)
 
Loc | Ops | Rwys | IFR | FBO | Links
Com | Nav | Svcs | Stats | Notes
Area around 1MA4 (Wang Heliport)
 
Road maps at: MapQuest Bing Google
 
Aerial photo
No photo
 
Sectional chart

 
Airport distance calculator
Flying to Wang Heliport? Find the distance to fly.

From to 1MA4

Sunrise and sunset
Times for 25-Jun-2019
 Local
(UTC-4)
 Zulu
(UTC)
Morning civil twilight04:3508:35
Sunrise05:1009:10
Sunset20:2600:26
Evening civil twilight21:0101:01

Current date and time
Zulu (UTC)  26-Jun-2019 03:01:20
Local (UTC-4)  25-Jun-2019 23:01:20
 
METAR
KBED 
9nm S 
260256Z AUTO 21004KT 10SM OVC006 21/19 A2990 RMK AO2 SLP134 60004 T02110189 52007
KLWM 
11nm NE 
260254Z AUTO 19003KT 6SM BR OVC008 20/19 A2992 RMK AO2 RAE0159 CIG 005V011 SLP132 P0000 60001 T02000194 50005
KASH 
13nm NW 
260256Z AUTO VRB03KT 10SM OVC005 21/21 A2991 RMK AO2 CIG 003V009 SLP137 T02060206 51013
KBVY 
18nm E 
260257Z AUTO 12005KT 3SM -RA BR OVC004 19/18 A2990 RMK AO2 P0001 T01890178
KFIT 
19nm W 
260252Z AUTO 20004KT 10SM OVC014 21/19 A2992 RMK AO2 SLP131 T02060189 53013
KBOS 
20nm SE 
260254Z 20006KT 3SM -RA BR OVC008 21/19 A2991 RMK AO2 RAE06B40 SLP126 P0000 60005 T02110194 53007
TAF
KBED 
9nm S 
252022Z 2520/2618 18011KT 5SM BR VCSH BKN009 OVC020 FM260000 16006KT 3SM BR VCSH OVC008 FM260400 18004KT 4SM BR BKN015 FM261100 34004KT 2SM BR BKN015
KBOS 
20nm SE 
252018Z 2520/2624 16009KT P6SM VCSH BKN011 OVC035 FM260200 22007KT 6SM BR OVC012 FM260600 30004KT 6SM BR BKN010 FM261100 35005KT 3/4SM BR BKN010 FM261500 02005KT P6SM BKN015
NOTAMs
Click for the latest NOTAMs
NOTAMs are issued by the DoD/FAA and will open in a separate window not controlled by AirNav.

 

 
 

Would you like to see your business listed on this page?

 If your business provides an interesting product or service to pilots, flight crews, aircraft, or users of the Wang Heliport, you should consider listing it here.  To start the listing process, click on the button below
 
Add a business
 

Other Pages about Wang Heliport

Update a link
 
Copyright © AirNav, LLC. All rights reserved. Privacy Policy  Contact